Time;durP1;ratioP1;P1;durP2;ratioP2;P2;SDS_P1;SDS_P2;PMS_P1;PMS_P2;Temp;Humidity;BMP_temperature;BMP_pressure;BME280_temperature;BME280_humidity;BME280_pressure;Samples;Min_cycle;Max_cycle;Signal;HPM_P1;HPM_P2
2021/07/28 00:00:51;;;;;;;4.03;2.00;;;;;;;;;;5048283;28;20029;-62
2021/07/28 00:03:17;;;;;;;2.15;1.92;;;;;;;;;;5047711;28;20048;-62
2021/07/28 00:05:43;;;;;;;2.90;1.98;;;;;;;;;;5048833;28;20525;-62
2021/07/28 00:08:10;;;;;;;2.13;1.88;;;;;;;;;;5029565;28;20034;-62
2021/07/28 00:10:37;;;;;;;2.63;2.20;;;;;;;;;;5028120;28;20037;-62
2021/07/28 00:13:03;;;;;;;2.90;1.92;;;;;;;;;;5028383;28;20029;-62
2021/07/28 00:15:30;;;;;;;2.30;2.10;;;;;;;;;;5028049;28;20068;-62
2021/07/28 00:18:01;;;;;;;2.20;2.00;;;;;;;;;;5040797;28;20033;-62
2021/07/28 00:23:13;;;;;;;2.65;2.40;;;;;;;;;;5046905;28;20459;-61
2021/07/28 00:23:16;;;;;;;2.42;2.03;;;;;;;;;;5026620;28;20474;-61
2021/07/28 00:25:44;;;;;;;2.42;2.22;;;;;;;;;;5027253;28;20045;-61
2021/07/28 00:28:11;;;;;;;2.20;2.00;;;;;;;;;;5027451;28;20431;-61
2021/07/28 00:30:37;;;;;;;2.40;1.75;;;;;;;;;;5026374;28;20026;-61
2021/07/28 00:33:04;;;;;;;2.15;1.95;;;;;;;;;;5026238;28;20037;-61
2021/07/28 00:35:31;;;;;;;2.40;2.08;;;;;;;;;;5026331;28;20306;-61
2021/07/28 00:38:02;;;;;;;2.03;1.83;;;;;;;;;;5026463;28;20471;-61
2021/07/28 00:40:29;;;;;;;2.55;2.10;;;;;;;;;;5026054;28;20113;-61
2021/07/28 00:43:07;;;;;;;3.60;2.53;;;;;;;;;;5043804;28;20029;-61
2021/07/28 00:45:33;;;;;;;3.28;2.95;;;;;;;;;;5046252;28;20029;-61
2021/07/28 00:48:00;;;;;;;2.85;2.45;;;;;;;;;;5046150;28;20029;-61
2021/07/28 00:50:27;;;;;;;2.88;2.58;;;;;;;;;;5044852;28;20029;-61
2021/07/28 00:52:54;;;;;;;4.18;3.20;;;;;;;;;;5025389;28;20026;-61
2021/07/28 00:55:20;;;;;;;3.55;2.83;;;;;;;;;;5026176;28;20018;-61
2021/07/28 00:57:48;;;;;;;3.80;3.10;;;;;;;;;;5025120;28;20132;-61
2021/07/28 01:00:14;;;;;;;3.92;3.22;;;;;;;;;;5035909;28;20251;-61
2021/07/28 01:02:40;;;;;;;5.05;3.50;;;;;;;;;;5028259;28;20041;-61
2021/07/28 01:05:06;;;;;;;3.88;3.35;;;;;;;;;;5026251;28;20029;-61
2021/07/28 01:07:32;;;;;;;5.03;3.63;;;;;;;;;;5025870;28;20044;-61
2021/07/28 01:09:58;;;;;;;4.93;3.40;;;;;;;;;;5026892;28;20032;-61
2021/07/28 01:12:29;;;;;;;4.68;3.17;;;;;;;;;;5038792;28;20410;-61
2021/07/28 01:14:55;;;;;;;4.00;3.22;;;;;;;;;;5046007;28;20067;-61
2021/07/28 01:17:21;;;;;;;4.03;3.17;;;;;;;;;;5026658;28;20519;-60
2021/07/28 01:19:49;;;;;;;4.45;3.47;;;;;;;;;;5024585;28;20037;-61
2021/07/28 01:22:16;;;;;;;5.55;4.25;;;;;;;;;;4987020;28;1114100;-61
2021/07/28 01:24:42;;;;;;;6.18;4.35;;;;;;;;;;5027366;28;20566;-60
2021/07/28 01:27:08;;;;;;;5.13;4.20;;;;;;;;;;5026875;28;20116;-60
2021/07/28 01:29:34;;;;;;;4.75;3.83;;;;;;;;;;5027024;28;20050;-59
2021/07/28 01:32:00;;;;;;;4.93;3.60;;;;;;;;;;5026221;28;20033;-60
2021/07/28 01:34:26;;;;;;;4.20;3.35;;;;;;;;;;5026095;28;20029;-61
2021/07/28 01:36:56;;;;;;;3.90;2.90;;;;;;;;;;5026789;28;20389;-61
2021/07/28 01:39:21;;;;;;;2.88;2.40;;;;;;;;;;5026435;28;20446;-61
2021/07/28 01:41:57;;;;;;;3.03;2.20;;;;;;;;;;5026120;28;20047;-61
2021/07/28 01:44:23;;;;;;;2.63;2.25;;;;;;;;;;5026389;28;20029;-61
2021/07/28 01:46:49;;;;;;;2.75;2.30;;;;;;;;;;5025227;28;20059;-61
2021/07/28 01:49:16;;;;;;;2.35;2.03;;;;;;;;;;5026539;28;20108;-60
2021/07/28 01:51:43;;;;;;;2.20;2.00;;;;;;;;;;5025840;28;20404;-61
2021/07/28 01:54:10;;;;;;;2.88;1.75;;;;;;;;;;5025386;28;20104;-61
2021/07/28 01:56:42;;;;;;;3.65;2.47;;;;;;;;;;5025488;28;20257;-61
2021/07/28 01:59:08;;;;;;;2.60;2.10;;;;;;;;;;5024997;28;20111;-61
2021/07/28 02:01:34;;;;;;;4.95;2.25;;;;;;;;;;5025748;28;20029;-62
2021/07/28 02:04:00;;;;;;;2.75;2.30;;;;;;;;;;5026233;28;20095;-62
2021/07/28 02:06:26;;;;;;;2.10;1.90;;;;;;;;;;5025693;28;20555;-62
2021/07/28 02:08:52;;;;;;;2.42;1.77;;;;;;;;;;5026264;28;20034;-62
2021/07/28 02:11:18;;;;;;;2.53;2.05;;;;;;;;;;5025442;28;20025;-62
2021/07/28 02:13:44;;;;;;;2.28;1.77;;;;;;;;;;5026784;28;20025;-61
2021/07/28 02:16:10;;;;;;;2.40;2.00;;;;;;;;;;5030833;28;20021;-61
2021/07/28 02:18:36;;;;;;;2.28;1.98;;;;;;;;;;5045322;28;20419;-61
2021/07/28 02:21:04;;;;;;;2.88;2.00;;;;;;;;;;5045676;28;20029;-61
2021/07/28 02:23:31;;;;;;;2.25;1.83;;;;;;;;;;5035339;28;20036;-61
2021/07/28 02:25:57;;;;;;;2.97;1.98;;;;;;;;;;5025825;28;20186;-61
2021/07/28 02:28:23;;;;;;;2.22;1.73;;;;;;;;;;5025494;28;20108;-61
2021/07/28 02:30:49;;;;;;;3.33;2.20;;;;;;;;;;5025393;28;20029;-61
2021/07/28 02:33:16;;;;;;;3.05;2.00;;;;;;;;;;5026157;28;20036;-61
2021/07/28 02:35:42;;;;;;;2.20;1.90;;;;;;;;;;5025982;28;20022;-61
2021/07/28 02:38:08;;;;;;;2.20;2.00;;;;;;;;;;5025724;28;20055;-62
2021/07/28 02:40:34;;;;;;;2.22;1.70;;;;;;;;;;5025239;28;20021;-62
2021/07/28 02:43:00;;;;;;;1.90;1.70;;;;;;;;;;5041655;28;20094;-61
2021/07/28 02:45:26;;;;;;;2.00;1.80;;;;;;;;;;5031836;28;20025;-62
2021/07/28 02:47:52;;;;;;;1.77;1.38;;;;;;;;;;5025644;28;20083;-62
2021/07/28 02:50:18;;;;;;;1.70;1.60;;;;;;;;;;5025455;28;20112;-61
2021/07/28 02:52:44;;;;;;;2.08;1.80;;;;;;;;;;5025610;28;20030;-61
2021/07/28 02:55:10;;;;;;;1.60;1.50;;;;;;;;;;5025394;28;20029;-61
2021/07/28 02:57:37;;;;;;;2.42;1.98;;;;;;;;;;5025426;28;20091;-61
2021/07/28 03:00:06;;;;;;;2.10;1.88;;;;;;;;;;5025300;28;20025;-62
2021/07/28 03:02:33;;;;;;;1.80;1.70;;;;;;;;;;5023061;28;20038;-61
2021/07/28 03:05:00;;;;;;;2.50;1.98;;;;;;;;;;5024818;28;20029;-62
2021/07/28 03:07:26;;;;;;;1.75;1.65;;;;;;;;;;5024825;28;20048;-61
2021/07/28 03:09:52;;;;;;;2.40;1.75;;;;;;;;;;5025702;28;20033;-62
2021/07/28 03:12:19;;;;;;;2.53;2.33;;;;;;;;;;5024501;28;20535;-61
2021/07/28 03:14:45;;;;;;;2.67;2.22;;;;;;;;;;5025908;28;20045;-61
2021/07/28 03:17:11;;;;;;;2.10;1.90;;;;;;;;;;5025391;28;20060;-61
2021/07/28 03:19:37;;;;;;;3.08;2.28;;;;;;;;;;5024908;28;20048;-61
2021/07/28 03:22:03;;;;;;;2.40;2.00;;;;;;;;;;5022486;28;20499;-62
2021/07/28 03:24:30;;;;;;;2.92;2.30;;;;;;;;;;5026834;28;20026;-62
2021/07/28 03:26:56;;;;;;;2.63;2.30;;;;;;;;;;5044975;28;20103;-62
2021/07/28 03:29:23;;;;;;;2.30;2.10;;;;;;;;;;5044382;28;20037;-62
2021/07/28 03:31:50;;;;;;;2.30;2.10;;;;;;;;;;5037396;28;20428;-62
2021/07/28 03:34:16;;;;;;;2.60;2.22;;;;;;;;;;5025319;28;20041;-63
2021/07/28 03:36:42;;;;;;;3.90;2.88;;;;;;;;;;5025344;28;20021;-63
2021/07/28 03:39:09;;;;;;;3.88;2.40;;;;;;;;;;5024648;28;20026;-63
2021/07/28 03:41:35;;;;;;;2.58;2.33;;;;;;;;;;5028735;28;20025;-63
2021/07/28 03:44:01;;;;;;;2.95;2.28;;;;;;;;;;5044525;28;20041;-63
2021/07/28 03:46:27;;;;;;;2.40;2.10;;;;;;;;;;5044048;28;20060;-63
2021/07/28 03:48:54;;;;;;;2.83;2.20;;;;;;;;;;5044697;28;20052;-63
2021/07/28 03:51:20;;;;;;;2.45;2.03;;;;;;;;;;5041594;28;20028;-64
2021/07/28 03:53:46;;;;;;;2.55;2.08;;;;;;;;;;5023292;28;20030;-63
2021/07/28 03:56:12;;;;;;;2.80;2.40;;;;;;;;;;5025408;28;20067;-63
2021/07/28 03:58:38;;;;;;;2.80;2.17;;;;;;;;;;5024660;28;20539;-63
2021/07/28 04:01:04;;;;;;;2.53;2.33;;;;;;;;;;5024425;28;20033;-63
2021/07/28 04:03:30;;;;;;;2.33;2.13;;;;;;;;;;5043377;28;20029;-63
2021/07/28 04:05:56;;;;;;;3.88;2.30;;;;;;;;;;5028435;28;20029;-63
2021/07/28 04:08:23;;;;;;;3.00;2.35;;;;;;;;;;5024408;28;20509;-63
2021/07/28 04:10:49;;;;;;;2.63;2.08;;;;;;;;;;5025608;28;20376;-63
2021/07/28 04:13:15;;;;;;;2.33;2.13;;;;;;;;;;5025031;28;20029;-63
2021/07/28 04:15:43;;;;;;;2.42;2.22;;;;;;;;;;5027250;28;20022;-63
2021/07/28 04:18:10;;;;;;;2.17;1.98;;;;;;;;;;5028330;28;20033;-63
2021/07/28 04:20:36;;;;;;;2.53;2.17;;;;;;;;;;5037572;28;20116;-64
2021/07/28 04:23:02;;;;;;;3.03;2.28;;;;;;;;;;5047930;28;20111;-64
2021/07/28 04:25:29;;;;;;;3.35;2.60;;;;;;;;;;5047750;28;20644;-64
2021/07/28 04:27:55;;;;;;;3.35;2.70;;;;;;;;;;5048007;28;20446;-65
2021/07/28 04:30:21;;;;;;;2.60;1.90;;;;;;;;;;5038708;28;20029;-64
2021/07/28 04:32:48;;;;;;;2.38;2.15;;;;;;;;;;5027417;28;20041;-64
2021/07/28 04:35:16;;;;;;;2.47;2.10;;;;;;;;;;5028338;28;20048;-64
2021/07/28 04:37:41;;;;;;;2.67;2.30;;;;;;;;;;5028084;28;20037;-64
2021/07/28 04:40:08;;;;;;;2.47;2.25;;;;;;;;;;5027531;28;20029;-64
2021/07/28 04:42:36;;;;;;;3.35;2.65;;;;;;;;;;5027283;28;20087;-64
2021/07/28 04:45:03;;;;;;;3.42;2.70;;;;;;;;;;5028272;28;20253;-65
2021/07/28 04:47:30;;;;;;;2.03;1.83;;;;;;;;;;5027462;28;20056;-65
2021/07/28 04:49:56;;;;;;;2.53;2.28;;;;;;;;;;5027808;28;20087;-65
2021/07/28 04:52:26;;;;;;;2.60;2.40;;;;;;;;;;5027235;28;20037;-65
2021/07/28 04:54:55;;;;;;;2.58;2.38;;;;;;;;;;5027718;28;20025;-65
2021/07/28 04:57:22;;;;;;;2.47;2.25;;;;;;;;;;5027122;28;20029;-65
2021/07/28 04:59:49;;;;;;;2.60;2.15;;;;;;;;;;5028088;28;20503;-65
2021/07/28 05:02:16;;;;;;;3.00;2.35;;;;;;;;;;5028087;28;20080;-65
2021/07/28 05:04:43;;;;;;;3.55;2.58;;;;;;;;;;5027667;28;20033;-65
2021/07/28 05:07:09;;;;;;;3.05;2.30;;;;;;;;;;5027470;28;20029;-65
2021/07/28 05:09:35;;;;;;;2.40;2.20;;;;;;;;;;5026909;28;20057;-66
2021/07/28 05:12:02;;;;;;;2.50;2.30;;;;;;;;;;5043872;28;20075;-66
2021/07/28 05:14:28;;;;;;;2.55;2.13;;;;;;;;;;5046371;28;20503;-65
2021/07/28 05:16:54;;;;;;;3.17;2.28;;;;;;;;;;5047281;28;20107;-65
2021/07/28 05:19:20;;;;;;;2.30;2.10;;;;;;;;;;5041478;28;20029;-66
2021/07/28 05:21:46;;;;;;;2.85;2.30;;;;;;;;;;5029959;28;20124;-66
2021/07/28 05:24:13;;;;;;;3.08;2.28;;;;;;;;;;5029279;28;20486;-66
2021/07/28 05:26:39;;;;;;;2.50;2.30;;;;;;;;;;5042019;28;20332;-66
2021/07/28 05:29:05;;;;;;;2.33;2.10;;;;;;;;;;5046895;28;20100;-66
2021/07/28 05:31:31;;;;;;;2.78;2.22;;;;;;;;;;5046543;28;20029;-65
2021/07/28 05:33:57;;;;;;;2.60;2.40;;;;;;;;;;5039369;28;20057;-65
2021/07/28 05:36:23;;;;;;;2.78;2.40;;;;;;;;;;5031827;28;20064;-65
2021/07/28 05:38:50;;;;;;;3.63;2.28;;;;;;;;;;5041456;28;20050;-66
2021/07/28 05:41:16;;;;;;;4.35;2.30;;;;;;;;;;5027934;28;20451;-66
2021/07/28 05:43:43;;;;;;;2.25;2.05;;;;;;;;;;5029551;28;20044;-72
2021/07/28 05:46:09;;;;;;;2.38;1.90;;;;;;;;;;5030145;28;20048;-72
2021/07/28 05:48:35;;;;;;;2.00;1.85;;;;;;;;;;5035038;28;20443;-72
2021/07/28 05:51:01;;;;;;;2.40;2.20;;;;;;;;;;5035368;28;20029;-71
2021/07/28 05:53:27;;;;;;;1.92;1.73;;;;;;;;;;5044191;28;20025;-71
2021/07/28 05:55:55;;;;;;;1.88;1.70;;;;;;;;;;5034230;28;20025;-71
2021/07/28 05:58:21;;;;;;;1.80;1.40;;;;;;;;;;5030063;28;20021;-71
2021/07/28 06:00:48;;;;;;;1.60;1.50;;;;;;;;;;5046447;28;20036;-71
2021/07/28 06:03:14;;;;;;;2.60;1.60;;;;;;;;;;5035464;28;20043;-71
2021/07/28 06:05:40;;;;;;;1.35;1.25;;;;;;;;;;5027430;28;20388;-71
2021/07/28 06:08:06;;;;;;;1.65;1.20;;;;;;;;;;5042379;28;20025;-71
2021/07/28 06:10:32;;;;;;;1.35;1.25;;;;;;;;;;5036523;28;20507;-70
2021/07/28 06:13:00;;;;;;;1.42;1.30;;;;;;;;;;5036343;28;20056;-70
2021/07/28 06:15:26;;;;;;;1.98;1.52;;;;;;;;;;5029052;28;20468;-71
2021/07/28 06:17:52;;;;;;;1.58;1.35;;;;;;;;;;5027321;28;20581;-71
2021/07/28 06:20:19;;;;;;;1.58;1.48;;;;;;;;;;5042576;28;20043;-70
2021/07/28 06:22:45;;;;;;;2.38;1.75;;;;;;;;;;5038111;28;20631;-71
2021/07/28 06:25:11;;;;;;;1.95;1.45;;;;;;;;;;5027268;28;20041;-70
2021/07/28 06:27:37;;;;;;;1.88;1.50;;;;;;;;;;5030646;28;20781;-69
2021/07/28 06:30:04;;;;;;;2.00;1.35;;;;;;;;;;5045502;28;20033;-70
2021/07/28 06:32:30;;;;;;;3.22;1.33;;;;;;;;;;5043376;28;20477;-69
2021/07/28 06:34:56;;;;;;;2.67;1.42;;;;;;;;;;5039278;28;20395;-70
2021/07/28 06:37:22;;;;;;;2.08;1.50;;;;;;;;;;5026640;28;20033;-69
2021/07/28 06:39:48;;;;;;;1.88;1.40;;;;;;;;;;5047017;28;20108;-70
2021/07/28 06:42:14;;;;;;;1.67;1.45;;;;;;;;;;5047598;28;20992;-70
2021/07/28 06:44:41;;;;;;;1.30;1.20;;;;;;;;;;5046521;28;20040;-70
2021/07/28 06:47:08;;;;;;;1.35;1.25;;;;;;;;;;5045131;28;20044;-70
2021/07/28 06:49:34;;;;;;;0.90;0.90;;;;;;;;;;5046628;28;20112;-69
2021/07/28 06:52:00;;;;;;;1.13;1.02;;;;;;;;;;5046369;28;20112;-69
2021/07/28 06:54:26;;;;;;;1.95;1.40;;;;;;;;;;5043557;28;20057;-69
2021/07/28 06:56:52;;;;;;;1.83;1.40;;;;;;;;;;5025111;28;20064;-69
2021/07/28 06:59:19;;;;;;;1.75;1.48;;;;;;;;;;5025873;28;20139;-69
2021/07/28 07:01:46;;;;;;;3.05;1.98;;;;;;;;;;5025895;28;20029;-69
2021/07/28 07:04:12;;;;;;;1.40;1.30;;;;;;;;;;5025999;28;20025;-69
2021/07/28 07:06:38;;;;;;;1.60;1.20;;;;;;;;;;5024939;28;20033;-69
2021/07/28 07:09:04;;;;;;;1.15;1.05;;;;;;;;;;5025043;28;20043;-69
2021/07/28 07:11:30;;;;;;;1.50;1.40;;;;;;;;;;5034988;28;20553;-68
2021/07/28 07:13:56;;;;;;;1.90;1.20;;;;;;;;;;5028259;28;20018;-69
2021/07/28 07:16:23;;;;;;;1.17;1.08;;;;;;;;;;5033334;28;20538;-68
2021/07/28 07:18:49;;;;;;;1.88;1.13;;;;;;;;;;5028783;28;20045;-68
2021/07/28 07:21:15;;;;;;;1.42;1.20;;;;;;;;;;5029891;28;20030;-68
2021/07/28 07:23:41;;;;;;;1.70;1.40;;;;;;;;;;5041368;28;20029;-68
2021/07/28 07:26:07;;;;;;;1.17;1.00;;;;;;;;;;5046124;28;20035;-68
2021/07/28 07:28:34;;;;;;;1.23;1.13;;;;;;;;;;5040601;28;20036;-68
2021/07/28 07:31:00;;;;;;;1.60;1.20;;;;;;;;;;5033471;28;20025;-68
2021/07/28 07:33:40;;;;;;;2.00;1.20;;;;;;;;;;5045760;28;20029;-68
2021/07/28 07:36:15;;;;;;;1.55;1.20;;;;;;;;;;5045892;28;20021;-68
2021/07/28 07:38:42;;;;;;;1.30;1.20;;;;;;;;;;5045685;28;20025;-68
2021/07/28 07:41:08;;;;;;;1.33;1.23;;;;;;;;;;5041848;28;20055;-68
2021/07/28 07:43:35;;;;;;;1.30;1.20;;;;;;;;;;5034052;28;20079;-68
2021/07/28 07:46:02;;;;;;;1.02;0.93;;;;;;;;;;5045687;28;20032;-68
2021/07/28 07:48:28;;;;;;;1.52;1.42;;;;;;;;;;5045583;28;20074;-68
2021/07/28 07:50:55;;;;;;;1.67;1.40;;;;;;;;;;5047909;28;20025;-68
2021/07/28 07:53:21;;;;;;;1.55;1.45;;;;;;;;;;5036263;28;20025;-68
2021/07/28 07:55:47;;;;;;;1.20;1.10;;;;;;;;;;5040605;28;20503;-68
2021/07/28 07:58:14;;;;;;;1.23;1.13;;;;;;;;;;5040144;28;20104;-68
2021/07/28 08:00:40;;;;;;;1.48;1.38;;;;;;;;;;5049384;28;20021;-68
2021/07/28 08:03:06;;;;;;;1.40;1.30;;;;;;;;;;5049519;28;20033;-67
2021/07/28 08:05:32;;;;;;;1.20;1.10;;;;;;;;;;5036530;28;20187;-67
2021/07/28 08:07:58;;;;;;;1.60;1.50;;;;;;;;;;5029387;28;20025;-67
2021/07/28 08:10:25;;;;;;;1.70;1.50;;;;;;;;;;5038883;28;20025;-67
2021/07/28 08:12:51;;;;;;;3.55;1.83;;;;;;;;;;5049139;28;20179;-68
2021/07/28 08:15:17;;;;;;;2.00;1.80;;;;;;;;;;5049109;28;20025;-67
2021/07/28 08:17:42;;;;;;;1.50;1.40;;;;;;;;;;5049367;28;20029;-67
2021/07/28 08:20:09;;;;;;;2.35;1.75;;;;;;;;;;5049151;28;20033;-67
2021/07/28 08:22:35;;;;;;;1.63;1.50;;;;;;;;;;5034533;28;20044;-67
2021/07/28 08:25:01;;;;;;;1.85;1.70;;;;;;;;;;5029442;28;20496;-67
2021/07/28 08:27:28;;;;;;;1.63;1.52;;;;;;;;;;5041060;28;20082;-67
2021/07/28 08:29:55;;;;;;;1.85;1.52;;;;;;;;;;5049220;28;20090;-67
2021/07/28 08:32:21;;;;;;;2.13;1.67;;;;;;;;;;5048449;28;20086;-66
2021/07/28 08:34:47;;;;;;;2.13;1.92;;;;;;;;;;5048955;28;20067;-67
2021/07/28 08:37:13;;;;;;;1.50;1.40;;;;;;;;;;5049524;28;20480;-67
2021/07/28 08:39:39;;;;;;;2.22;1.75;;;;;;;;;;5048816;28;20043;-67
2021/07/28 08:42:06;;;;;;;1.60;1.50;;;;;;;;;;5036505;28;20033;-67
2021/07/28 08:44:36;;;;;;;1.88;1.70;;;;;;;;;;5028386;28;20459;-67
2021/07/28 08:47:03;;;;;;;1.52;1.42;;;;;;;;;;5028867;28;20036;-67
2021/07/28 08:49:29;;;;;;;1.38;1.27;;;;;;;;;;5028638;28;20124;-67
2021/07/28 08:51:55;;;;;;;1.42;1.33;;;;;;;;;;5038846;28;20040;-67
2021/07/28 08:54:22;;;;;;;2.08;1.50;;;;;;;;;;5041326;28;20026;-67
2021/07/28 08:56:48;;;;;;;1.67;1.58;;;;;;;;;;5028640;28;20036;-67
2021/07/28 08:59:23;;;;;;;1.80;1.27;;;;;;;;;;5028976;28;20110;-67
2021/07/28 09:01:50;;;;;;;1.40;1.20;;;;;;;;;;5028319;28;20030;-67
2021/07/28 09:04:17;;;;;;;2.05;1.70;;;;;;;;;;5030510;28;20040;-67
2021/07/28 09:06:44;;;;;;;1.52;1.40;;;;;;;;;;5048677;28;20029;-67
2021/07/28 09:09:10;;;;;;;1.60;1.50;;;;;;;;;;5047057;28;20082;-68
2021/07/28 09:11:50;;;;;;;1.40;1.27;;;;;;;;;;5037072;28;20042;-67
2021/07/28 09:14:20;;;;;;;1.38;1.27;;;;;;;;;;5043751;28;20017;-67
2021/07/28 09:16:47;;;;;;;1.48;1.38;;;;;;;;;;5048293;28;20399;-67
2021/07/28 09:19:13;;;;;;;1.67;1.40;;;;;;;;;;5048824;28;20021;-67
2021/07/28 09:21:39;;;;;;;1.20;1.10;;;;;;;;;;5047141;28;20422;-67
2021/07/28 09:24:12;;;;;;;1.30;1.10;;;;;;;;;;5038343;28;20025;-67
2021/07/28 09:29:12;;;;;;;1.63;1.40;;;;;;;;;;5028430;28;20040;-66
2021/07/28 09:31:38;;;;;;;1.30;1.20;;;;;;;;;;5027579;28;20052;-66
2021/07/28 09:36:46;;;;;;;1.10;1.00;;;;;;;;;;5028761;28;20036;-66
2021/07/28 09:39:31;;;;;;;2.25;1.50;;;;;;;;;;5028653;28;20112;-66
2021/07/28 09:41:58;;;;;;;1.17;1.08;;;;;;;;;;5027803;28;20472;-65
2021/07/28 09:44:25;;;;;;;1.20;1.10;;;;;;;;;;5027631;28;20025;-66
2021/07/28 09:47:10;;;;;;;1.85;1.50;;;;;;;;;;5027997;28;20030;-65
2021/07/28 09:49:37;;;;;;;1.13;1.08;;;;;;;;;;5046071;28;20396;-67
2021/07/28 09:52:21;;;;;;;0.98;0.98;;;;;;;;;;5047445;28;20462;-66
2021/07/28 09:54:50;;;;;;;1.35;1.08;;;;;;;;;;5047641;28;20453;-66
2021/07/28 09:57:20;;;;;;;1.10;1.00;;;;;;;;;;5048029;28;20127;-67
2021/07/28 09:59:49;;;;;;;1.52;1.30;;;;;;;;;;5048149;28;20506;-67
2021/07/28 10:02:16;;;;;;;0.90;0.90;;;;;;;;;;5038560;28;20132;-65
2021/07/28 10:04:48;;;;;;;1.30;1.20;;;;;;;;;;5034173;28;20025;-66
2021/07/28 10:07:16;;;;;;;1.10;1.00;;;;;;;;;;5027956;28;20021;-66
2021/07/28 10:09:43;;;;;;;1.23;0.90;;;;;;;;;;5034278;28;20037;-66
2021/07/28 10:12:09;;;;;;;1.10;1.00;;;;;;;;;;5044878;28;20017;-66
2021/07/28 10:14:36;;;;;;;1.17;1.08;;;;;;;;;;5046395;28;20495;-66
2021/07/28 10:17:04;;;;;;;1.10;1.00;;;;;;;;;;5047021;28;20512;-65
2021/07/28 10:19:32;;;;;;;1.40;1.30;;;;;;;;;;5046753;28;20151;-65
2021/07/28 10:22:01;;;;;;;1.17;1.08;;;;;;;;;;5045254;28;20036;-66
2021/07/28 10:24:28;;;;;;;1.20;1.10;;;;;;;;;;5036434;28;20578;-66
2021/07/28 10:26:58;;;;;;;0.90;0.90;;;;;;;;;;5046715;28;20037;-64
2021/07/28 10:29:24;;;;;;;1.35;1.25;;;;;;;;;;5041512;28;20021;-65
2021/07/28 10:31:51;;;;;;;1.40;1.30;;;;;;;;;;5045488;28;20108;-63
2021/07/28 10:34:27;;;;;;;1.15;1.05;;;;;;;;;;5045591;28;20029;-63
2021/07/28 10:37:07;;;;;;;1.60;1.50;;;;;;;;;;5041459;28;20483;-63
2021/07/28 10:39:34;;;;;;;1.45;1.25;;;;;;;;;;5038013;28;20132;-63
2021/07/28 10:42:01;;;;;;;2.50;1.85;;;;;;;;;;5046675;28;20108;-63
2021/07/28 10:44:27;;;;;;;1.17;1.08;;;;;;;;;;5046669;28;20033;-63
2021/07/28 10:46:56;;;;;;;1.30;1.20;;;;;;;;;;5046978;28;20071;-63
2021/07/28 10:49:28;;;;;;;1.25;1.15;;;;;;;;;;5046506;28;20107;-63
2021/07/28 10:51:55;;;;;;;1.40;1.30;;;;;;;;;;5035661;28;20034;-63
2021/07/28 10:54:40;;;;;;;1.20;1.10;;;;;;;;;;5025215;28;20032;-63
2021/07/28 10:57:07;;;;;;;1.35;1.10;;;;;;;;;;5026748;28;20053;-65
2021/07/28 10:59:40;;;;;;;1.10;1.00;;;;;;;;;;5026980;28;20462;-64
2021/07/28 11:02:06;;;;;;;1.02;1.02;;;;;;;;;;5026315;28;20030;-62
2021/07/28 11:04:32;;;;;;;1.20;1.10;;;;;;;;;;5028504;28;20101;-62
2021/07/28 11:06:58;;;;;;;1.55;1.35;;;;;;;;;;5033836;28;20038;-62
2021/07/28 11:09:25;;;;;;;1.25;1.15;;;;;;;;;;5033521;28;20028;-62
2021/07/28 11:11:51;;;;;;;1.65;1.25;;;;;;;;;;5036624;28;20029;-62
2021/07/28 11:14:17;;;;;;;1.13;1.10;;;;;;;;;;5044466;28;20398;-62
2021/07/28 11:16:54;;;;;;;1.45;1.27;;;;;;;;;;5027918;28;20021;-62
2021/07/28 11:19:20;;;;;;;0.80;0.80;;;;;;;;;;5029203;28;20145;-62
2021/07/28 11:21:47;;;;;;;0.90;0.80;;;;;;;;;;5037514;28;20033;-62
2021/07/28 11:24:13;;;;;;;1.05;1.00;;;;;;;;;;5035159;28;20025;-62
2021/07/28 11:26:45;;;;;;;0.98;0.90;;;;;;;;;;5033397;28;20500;-62
2021/07/28 11:29:20;;;;;;;1.33;1.23;;;;;;;;;;5031314;28;20029;-62
2021/07/28 11:31:49;;;;;;;1.23;1.13;;;;;;;;;;5039530;28;20091;-62
2021/07/28 11:34:17;;;;;;;1.10;1.00;;;;;;;;;;5041778;28;20120;-62
2021/07/28 11:36:46;;;;;;;1.20;1.10;;;;;;;;;;5038693;28;20037;-62
2021/07/28 11:39:14;;;;;;;1.60;1.10;;;;;;;;;;5045378;28;20387;-63
2021/07/28 11:41:40;;;;;;;1.10;1.10;;;;;;;;;;5034308;28;20033;-63
2021/07/28 11:44:07;;;;;;;1.27;1.17;;;;;;;;;;5031247;28;20042;-63
2021/07/28 11:46:34;;;;;;;0.95;0.95;;;;;;;;;;5047599;28;20079;-63
2021/07/28 11:49:03;;;;;;;1.30;1.20;;;;;;;;;;5042887;28;20500;-64
2021/07/28 11:51:35;;;;;;;1.00;1.00;;;;;;;;;;5031934;28;20033;-63
2021/07/28 11:54:11;;;;;;;1.70;1.23;;;;;;;;;;5029081;28;20519;-63
2021/07/28 11:56:38;;;;;;;1.20;1.10;;;;;;;;;;5043524;28;20403;-63
2021/07/28 11:59:11;;;;;;;1.20;1.13;;;;;;;;;;5042978;28;20025;-63
2021/07/28 12:01:46;;;;;;;1.33;1.20;;;;;;;;;;5036815;28;20116;-63
2021/07/28 12:04:17;;;;;;;1.30;1.20;;;;;;;;;;5042496;28;20414;-63
2021/07/28 12:06:43;;;;;;;1.42;1.33;;;;;;;;;;5043328;28;20033;-62
2021/07/28 12:09:16;;;;;;;2.15;1.55;;;;;;;;;;5027709;28;20107;-63
2021/07/28 12:11:52;;;;;;;1.98;1.77;;;;;;;;;;5035848;28;20166;-64
2021/07/28 12:14:24;;;;;;;1.30;1.20;;;;;;;;;;5038645;28;20035;-64
2021/07/28 12:16:51;;;;;;;1.10;1.10;;;;;;;;;;5027534;28;20036;-65
2021/07/28 12:19:27;;;;;;;1.10;1.00;;;;;;;;;;5027618;28;20017;-64
2021/07/28 12:21:54;;;;;;;1.27;1.17;;;;;;;;;;5027722;28;20601;-64
2021/07/28 12:24:41;;;;;;;1.65;1.55;;;;;;;;;;5039057;28;20309;-65
2021/07/28 12:27:26;;;;;;;1.30;1.20;;;;;;;;;;5047336;28;20543;-64
2021/07/28 12:29:58;;;;;;;1.40;1.30;;;;;;;;;;5046784;28;20454;-63
2021/07/28 12:32:34;;;;;;;1.67;1.58;;;;;;;;;;5031049;28;20120;-64
2021/07/28 12:35:03;;;;;;;1.30;1.20;;;;;;;;;;5033393;28;20478;-64
2021/07/28 12:37:30;;;;;;;1.30;1.20;;;;;;;;;;5026601;28;20026;-64
2021/07/28 12:39:56;;;;;;;1.23;1.13;;;;;;;;;;5027300;28;20542;-65
2021/07/28 12:42:23;;;;;;;1.48;1.38;;;;;;;;;;5026769;28;20041;-65
2021/07/28 12:44:49;;;;;;;1.17;1.08;;;;;;;;;;5028182;28;20028;-65
2021/07/28 12:47:15;;;;;;;1.30;1.13;;;;;;;;;;5027896;28;20093;-65
2021/07/28 12:49:41;;;;;;;1.30;1.20;;;;;;;;;;5027493;28;20276;-65
2021/07/28 12:52:08;;;;;;;0.95;0.95;;;;;;;;;;5031189;28;20588;-66
2021/07/28 12:54:35;;;;;;;1.48;1.25;;;;;;;;;;5046915;28;20442;-65
2021/07/28 12:57:02;;;;;;;1.20;1.10;;;;;;;;;;5039865;28;20029;-65
2021/07/28 12:59:30;;;;;;;1.30;1.20;;;;;;;;;;5027007;28;20029;-65
2021/07/28 13:01:58;;;;;;;1.27;1.17;;;;;;;;;;5027007;28;20033;-65
2021/07/28 13:04:26;;;;;;;1.00;0.90;;;;;;;;;;5026858;28;20514;-65
2021/07/28 13:07:07;;;;;;;0.75;0.75;;;;;;;;;;5026816;28;20056;-65
2021/07/28 13:09:33;;;;;;;1.15;1.05;;;;;;;;;;5026716;28;20037;-66
2021/07/28 13:11:59;;;;;;;1.20;1.10;;;;;;;;;;5026660;28;20072;-66
2021/07/28 13:14:26;;;;;;;1.35;1.25;;;;;;;;;;5026634;28;20021;-66
2021/07/28 13:16:53;;;;;;;1.75;1.25;;;;;;;;;;5026893;28;20037;-65
2021/07/28 13:19:19;;;;;;;1.40;1.30;;;;;;;;;;5028312;28;20519;-66
2021/07/28 13:21:45;;;;;;;1.50;1.40;;;;;;;;;;5030999;28;20064;-66
2021/07/28 13:24:11;;;;;;;1.40;1.30;;;;;;;;;;5026869;28;20029;-67
2021/07/28 13:26:39;;;;;;;1.52;1.40;;;;;;;;;;5026434;28;20037;-67
2021/07/28 13:29:06;;;;;;;1.67;1.58;;;;;;;;;;5042003;28;20104;-66
2021/07/28 13:31:32;;;;;;;1.73;1.45;;;;;;;;;;5034815;28;20029;-66
2021/07/28 13:33:58;;;;;;;1.35;1.20;;;;;;;;;;5030810;28;20052;-66
2021/07/28 13:36:26;;;;;;;1.40;1.30;;;;;;;;;;5034003;28;20100;-65
2021/07/28 13:38:52;;;;;;;1.33;1.10;;;;;;;;;;5031906;28;20029;-66
2021/07/28 13:41:18;;;;;;;1.40;1.30;;;;;;;;;;5034328;28;20116;-66
2021/07/28 13:43:44;;;;;;;1.42;1.23;;;;;;;;;;5034822;28;20037;-66
2021/07/28 13:46:11;;;;;;;1.40;1.30;;;;;;;;;;5045786;28;20029;-66
2021/07/28 13:48:38;;;;;;;1.75;1.65;;;;;;;;;;5040733;28;20036;-66
2021/07/28 13:51:07;;;;;;;1.67;1.58;;;;;;;;;;5025627;28;20380;-66
2021/07/28 13:53:33;;;;;;;1.70;1.60;;;;;;;;;;5026668;28;20104;-67
2021/07/28 13:55:59;;;;;;;1.50;1.40;;;;;;;;;;5034554;28;20017;-66
2021/07/28 13:58:25;;;;;;;1.58;1.48;;;;;;;;;;5046652;28;20100;-66
2021/07/28 14:00:51;;;;;;;1.45;1.35;;;;;;;;;;5046708;28;20614;-66
2021/07/28 14:03:17;;;;;;;1.85;1.65;;;;;;;;;;5046384;28;20420;-66
2021/07/28 14:05:44;;;;;;;1.50;1.40;;;;;;;;;;5046445;28;20052;-66
2021/07/28 14:08:10;;;;;;;1.45;1.35;;;;;;;;;;5042410;28;20064;-66
2021/07/28 14:10:39;;;;;;;1.60;1.50;;;;;;;;;;5039526;28;20448;-64
2021/07/28 14:13:05;;;;;;;1.50;1.40;;;;;;;;;;5040780;28;20036;-66
2021/07/28 14:15:31;;;;;;;1.73;1.63;;;;;;;;;;5043864;28;20025;-66
2021/07/28 14:17:57;;;;;;;1.80;1.70;;;;;;;;;;5036125;28;20036;-67
2021/07/28 14:20:23;;;;;;;2.47;1.75;;;;;;;;;;5033289;28;20033;-66
2021/07/28 14:22:49;;;;;;;1.63;1.52;;;;;;;;;;5045686;28;20158;-67
2021/07/28 14:25:16;;;;;;;1.42;1.33;;;;;;;;;;5038885;28;20143;-67
2021/07/28 14:27:44;;;;;;;1.67;1.58;;;;;;;;;;5027286;28;20550;-67
2021/07/28 14:30:10;;;;;;;1.88;1.63;;;;;;;;;;5030579;28;20214;-68
2021/07/28 14:32:36;;;;;;;1.50;1.40;;;;;;;;;;5036761;28;20041;-67
2021/07/28 14:35:03;;;;;;;1.60;1.50;;;;;;;;;;5028778;28;20026;-67
2021/07/28 14:37:29;;;;;;;1.45;1.35;;;;;;;;;;5032951;28;20029;-67
2021/07/28 14:39:56;;;;;;;2.35;2.15;;;;;;;;;;5046623;28;20028;-67
2021/07/28 14:42:22;;;;;;;2.10;1.90;;;;;;;;;;5041710;28;20067;-67
2021/07/28 14:44:48;;;;;;;1.42;1.33;;;;;;;;;;5027195;28;20725;-68
2021/07/28 14:47:17;;;;;;;2.35;2.15;;;;;;;;;;5032319;28;20032;-67
2021/07/28 14:49:43;;;;;;;1.85;1.75;;;;;;;;;;5032524;28;20061;-68